Time;durP1;ratioP1;P1;durP2;ratioP2;P2;SDS_P1;SDS_P2;PMS_P1;PMS_P2;Temp;Humidity;BMP_temperature;BMP_pressure;BME280_temperature;BME280_humidity;BME280_pressure;Samples;Min_cycle;Max_cycle;Signal;HPM_P1;HPM_P2
2022/05/29 04:04:36;;;;;;;3.40;2.00;;;11.60;99.70;;;;;;5389980;23;20721;-63
2022/05/29 04:07:02;;;;;;;1.87;1.77;;;11.60;99.70;;;;;;4996690;28;20179;-64
2022/05/29 04:12:32;;;;;;;2.40;2.30;;;11.50;99.90;;;;;;4955558;29;20176;-65
2022/05/29 04:14:58;;;;;;;1.77;1.67;;;11.40;99.90;;;;;;4955810;28;20752;-64
2022/05/29 04:17:23;;;;;;;4.60;2.37;;;11.40;99.90;;;;;;4965739;28;20195;-65
2022/05/29 04:19:49;;;;;;;2.03;1.93;;;11.50;99.90;;;;;;4976976;28;20176;-65
2022/05/29 04:22:17;;;;;;;2.23;2.13;;;11.50;99.90;;;;;;4976479;28;20267;-64
2022/05/29 04:24:43;;;;;;;4.13;2.50;;;11.50;99.90;;;;;;4977232;28;20204;-63
2022/05/29 04:27:11;;;;;;;1.88;1.77;;;11.50;99.90;;;;;;4977221;28;20179;-64
2022/05/29 04:29:37;;;;;;;2.05;1.95;;;11.50;99.90;;;;;;4975383;28;20576;-64
2022/05/29 04:34:47;;;;;;;2.10;2.00;;;11.50;99.90;;;;;;4976169;28;20997;-64
2022/05/29 04:37:13;;;;;;;1.40;1.30;;;11.40;99.90;;;;;;4977027;28;20176;-64
2022/05/29 04:39:38;;;;;;;4.67;2.30;;;11.40;99.90;;;;;;4987731;28;20313;-64
2022/05/29 04:42:05;;;;;;;2.07;1.90;;;11.30;99.90;;;;;;4995978;28;20188;-64
2022/05/29 04:44:32;;;;;;;1.55;1.45;;;11.30;99.90;;;;;;4996259;28;20195;-63
2022/05/29 04:46:59;;;;;;;2.95;2.03;;;11.30;99.90;;;;;;4996237;28;20176;-64
2022/05/29 04:49:24;;;;;;;7.20;2.00;;;11.30;99.90;;;;;;4996085;28;20169;-63
2022/05/29 04:51:50;;;;;;;1.50;1.40;;;11.20;99.90;;;;;;4996172;28;20171;-65
2022/05/29 04:54:15;;;;;;;2.43;1.83;;;11.20;99.90;;;;;;4985648;28;20195;-64
2022/05/29 04:56:41;;;;;;;1.60;1.60;;;11.10;99.90;;;;;;4975220;28;20328;-64
2022/05/29 04:59:07;;;;;;;1.80;1.70;;;11.10;99.90;;;;;;4975289;28;20176;-65
2022/05/29 05:01:33;;;;;;;3.33;2.00;;;11.00;99.90;;;;;;4976405;28;20520;-64
2022/05/29 05:03:59;;;;;;;1.70;1.60;;;10.90;99.90;;;;;;4976284;28;20463;-64
2022/05/29 05:06:24;;;;;;;2.20;2.10;;;10.80;99.90;;;;;;4976344;28;20188;-65
2022/05/29 05:08:50;;;;;;;2.50;2.30;;;10.80;99.90;;;;;;4984395;28;20226;-64
2022/05/29 05:11:15;;;;;;;1.80;1.70;;;10.70;99.90;;;;;;4995819;28;20164;-64
2022/05/29 05:13:41;;;;;;;2.90;2.57;;;10.70;99.90;;;;;;4995183;28;20187;-64
2022/05/29 05:16:07;;;;;;;2.03;1.93;;;10.60;99.90;;;;;;4994400;28;20168;-63
2022/05/29 05:18:33;;;;;;;3.17;2.40;;;10.50;99.90;;;;;;4995533;28;20175;-64
2022/05/29 05:20:58;;;;;;;6.20;2.63;;;10.50;99.90;;;;;;4979283;28;20591;-63
2022/05/29 05:23:27;;;;;;;1.93;1.60;;;10.40;99.90;;;;;;4975731;28;20519;-65
2022/05/29 05:25:52;;;;;;;2.08;1.98;;;10.40;99.90;;;;;;4976245;28;20446;-64
2022/05/29 05:28:18;;;;;;;2.67;1.83;;;10.50;99.90;;;;;;4974847;28;20219;-64
2022/05/29 05:30:47;;;;;;;3.23;2.73;;;10.50;99.90;;;;;;4976164;28;20206;-64
2022/05/29 05:33:13;;;;;;;2.47;2.22;;;10.50;99.90;;;;;;4974872;28;20276;-65
2022/05/29 05:35:39;;;;;;;2.60;2.40;;;10.60;99.90;;;;;;4976089;28;20204;-64
2022/05/29 05:38:06;;;;;;;3.80;2.07;;;10.60;99.90;;;;;;4975898;28;20209;-64
2022/05/29 05:40:32;;;;;;;3.47;2.13;;;10.60;99.90;;;;;;4976097;28;20259;-64
2022/05/29 05:42:57;;;;;;;2.80;2.60;;;10.70;99.90;;;;;;4975402;28;20259;-64
2022/05/29 05:45:23;;;;;;;2.60;2.40;;;10.80;99.90;;;;;;4975471;28;20426;-65
2022/05/29 05:47:49;;;;;;;1.80;1.70;;;11.00;99.90;;;;;;4975288;28;20261;-63
2022/05/29 05:50:15;;;;;;;3.23;2.93;;;11.20;99.90;;;;;;4989556;28;20183;-62
2022/05/29 05:52:41;;;;;;;2.53;2.42;;;11.30;99.90;;;;;;4994484;28;20172;-62
2022/05/29 05:55:13;;;;;;;4.40;2.90;;;11.50;99.90;;;;;;4994879;28;20255;-63
2022/05/29 05:57:40;;;;;;;1.98;1.88;;;11.70;99.90;;;;;;4994868;28;20175;-64
2022/05/29 06:00:11;;;;;;;2.20;2.00;;;11.90;99.90;;;;;;4995021;28;20539;-63
2022/05/29 06:02:40;;;;;;;1.90;1.80;;;12.10;99.90;;;;;;4995124;28;20403;-64
2022/05/29 06:05:07;;;;;;;1.70;1.60;;;12.30;99.90;;;;;;4978986;28;20881;-63
2022/05/29 06:07:32;;;;;;;1.63;1.63;;;12.40;99.90;;;;;;4975320;28;20451;-63
2022/05/29 06:09:58;;;;;;;1.73;1.63;;;12.60;99.90;;;;;;4975104;28;20506;-63
2022/05/29 06:12:23;;;;;;;1.20;1.20;;;12.70;99.90;;;;;;4974995;28;20175;-62
2022/05/29 06:14:49;;;;;;;2.20;2.10;;;12.80;99.90;;;;;;4975306;28;20205;-64
2022/05/29 06:17:15;;;;;;;2.03;1.70;;;12.80;99.90;;;;;;4975131;28;20175;-63
2022/05/29 06:19:41;;;;;;;1.80;1.70;;;12.90;99.90;;;;;;4988696;28;20191;-63
2022/05/29 06:22:07;;;;;;;1.30;1.30;;;12.90;99.90;;;;;;4994188;28;20526;-64
2022/05/29 06:24:33;;;;;;;3.33;2.10;;;13.00;99.90;;;;;;4994364;28;20238;-64
2022/05/29 06:26:59;;;;;;;4.97;1.70;;;13.10;99.90;;;;;;4994506;28;20422;-64
2022/05/29 06:29:26;;;;;;;1.73;1.60;;;13.20;99.90;;;;;;4994310;28;20486;-65
2022/05/29 06:31:56;;;;;;;1.60;1.50;;;13.20;99.90;;;;;;4994616;28;20433;-63
2022/05/29 06:34:21;;;;;;;1.70;1.60;;;13.30;99.90;;;;;;4980425;28;20450;-64
2022/05/29 06:36:47;;;;;;;3.43;1.77;;;13.50;99.90;;;;;;4974668;28;20477;-63
2022/05/29 06:39:12;;;;;;;1.60;1.20;;;13.50;99.90;;;;;;4974890;28;20182;-64
2022/05/29 06:41:39;;;;;;;0.80;0.80;;;13.50;99.90;;;;;;4974938;28;20179;-63
2022/05/29 06:44:05;;;;;;;1.13;1.13;;;13.40;99.90;;;;;;4974193;28;20199;-64
2022/05/29 06:46:31;;;;;;;1.00;1.00;;;13.40;99.90;;;;;;4974837;28;20418;-64
2022/05/29 06:48:57;;;;;;;0.87;0.87;;;13.40;99.90;;;;;;4986247;28;20465;-63
2022/05/29 06:51:23;;;;;;;2.03;1.07;;;13.50;99.90;;;;;;4994282;28;20171;-65
2022/05/29 06:53:55;;;;;;;2.77;1.40;;;13.60;99.90;;;;;;4993626;28;20191;-65
2022/05/29 06:56:21;;;;;;;1.87;0.83;;;13.60;99.90;;;;;;4994054;28;20819;-66
2022/05/29 06:58:47;;;;;;;0.83;0.83;;;13.70;99.90;;;;;;4976353;28;20449;-64
2022/05/29 07:06:59;;;;;;;1.27;1.13;;;13.60;99.90;;;;;;4994160;28;20489;-64
2022/05/29 07:09:32;;;;;;;1.13;1.13;;;13.80;99.90;;;;;;4994010;28;20791;-65
2022/05/29 07:12:15;;;;;;;0.90;0.90;;;13.80;99.90;;;;;;4994070;28;20410;-64
2022/05/29 07:15:06;;;;;;;1.50;1.40;;;14.00;99.90;;;;;;4984229;28;21050;-65
2022/05/29 07:17:32;;;;;;;4.10;1.50;;;14.40;99.90;;;;;;4967330;28;20903;-65
2022/05/29 07:19:58;;;;;;;4.63;1.13;;;14.70;98.30;;;;;;4974587;28;20464;-63
2022/05/29 07:22:27;;;;;;;1.87;1.13;;;15.00;97.50;;;;;;4974260;28;20412;-65
2022/05/29 07:24:53;;;;;;;1.87;1.10;;;15.20;96.10;;;;;;4974237;28;20429;-65
2022/05/29 07:27:18;;;;;;;1.17;1.17;;;15.30;95.20;;;;;;4974334;28;20485;-65
2022/05/29 07:29:44;;;;;;;1.10;1.07;;;15.40;95.30;;;;;;4985593;28;20703;-65
2022/05/29 07:32:11;;;;;;;2.50;1.33;;;15.50;94.50;;;;;;4993449;28;20201;-66
2022/05/29 07:34:37;;;;;;;0.93;0.90;;;15.70;94.60;;;;;;4993775;28;20203;-63
2022/05/29 07:37:06;;;;;;;1.50;0.73;;;16.10;94.00;;;;;;4993280;28;20493;-64
2022/05/29 07:39:36;;;;;;;1.07;1.07;;;16.40;94.00;;;;;;4993732;28;20411;-66
2022/05/29 07:44:47;;;;;;;1.00;1.00;;;16.70;93.50;;;;;;4993941;28;20472;-64
2022/05/29 07:47:13;;;;;;;1.57;1.10;;;16.70;93.40;;;;;;4983706;28;20432;-64
2022/05/29 07:49:39;;;;;;;1.33;1.10;;;16.60;93.00;;;;;;4974363;28;20597;-65
2022/05/29 07:52:05;;;;;;;4.13;1.17;;;16.50;93.40;;;;;;4974065;28;20176;-63
2022/05/29 07:54:30;;;;;;;1.63;1.10;;;16.50;93.40;;;;;;4973730;28;20839;-64
2022/05/29 07:56:56;;;;;;;2.93;1.20;;;16.30;92.80;;;;;;4977605;28;20404;-64
2022/05/29 07:59:22;;;;;;;0.97;0.97;;;16.20;92.60;;;;;;4977873;28;20180;-63
2022/05/29 08:01:48;;;;;;;1.17;1.13;;;16.10;93.50;;;;;;4985437;28;20632;-64
2022/05/29 08:04:14;;;;;;;1.70;1.33;;;16.10;92.60;;;;;;4996535;28;20331;-64
2022/05/29 08:06:40;;;;;;;1.63;1.50;;;15.90;92.10;;;;;;4979445;28;20422;-64
2022/05/29 08:09:06;;;;;;;1.30;1.20;;;15.70;92.10;;;;;;4977596;28;20462;-64
2022/05/29 08:11:32;;;;;;;1.03;0.80;;;15.70;92.30;;;;;;4976518;28;20638;-63
2022/05/29 08:14:00;;;;;;;1.07;0.97;;;15.80;92.80;;;;;;4977149;28;20201;-63
2022/05/29 08:16:26;;;;;;;1.70;1.60;;;16.10;94.00;;;;;;4977544;28;20418;-64
2022/05/29 08:18:53;;;;;;;1.20;1.10;;;16.40;94.70;;;;;;4976073;28;20408;-63
2022/05/29 08:21:19;;;;;;;3.30;1.33;;;16.80;93.10;;;;;;4991949;28;20250;-63
2022/05/29 08:30:37;;;;;;;1.43;1.33;;;17.10;93.50;;;;;;4996246;28;20458;-63
2022/05/29 08:31:59;;;;;;;2.80;2.13;;;18.10;92.10;;;;;;4996376;28;20422;-63
2022/05/29 08:34:25;;;;;;;2.93;1.70;;;18.10;91.40;;;;;;4994159;28;20430;-64
2022/05/29 08:36:51;;;;;;;1.20;1.20;;;18.30;91.90;;;;;;4978852;28;20263;-63
2022/05/29 08:39:16;;;;;;;1.63;1.33;;;18.30;91.30;;;;;;4976881;28;20578;-64
2022/05/29 08:41:48;;;;;;;1.33;1.20;;;18.20;91.50;;;;;;4977048;28;20180;-64
2022/05/29 08:44:17;;;;;;;2.73;1.57;;;18.40;91.20;;;;;;4976496;28;20564;-63
2022/05/29 08:46:49;;;;;;;1.40;1.40;;;18.70;92.20;;;;;;4976620;28;20427;-64
2022/05/29 08:49:23;;;;;;;1.53;1.43;;;19.50;90.40;;;;;;4978597;28;20467;-65
2022/05/29 08:51:51;;;;;;;1.33;1.23;;;20.60;86.30;;;;;;4996060;28;20451;-65
2022/05/29 08:54:42;;;;;;;1.30;1.20;;;21.60;87.80;;;;;;4995411;28;20451;-64
2022/05/29 08:57:23;;;;;;;1.50;1.30;;;22.70;84.10;;;;;;4994474;28;20493;-65
2022/05/29 09:00:02;;;;;;;1.43;1.40;;;23.30;81.00;;;;;;4995950;28;20407;-65
2022/05/29 09:03:20;;;;;;;1.40;1.30;;;23.80;77.80;;;;;;4995259;28;20409;-64
2022/05/29 09:05:47;;;;;;;1.40;1.30;;;24.40;77.20;;;;;;4953827;28;20439;-65
2022/05/29 09:08:24;;;;;;;1.33;1.23;;;24.60;71.50;;;;;;4975216;28;20504;-64
2022/05/29 09:10:58;;;;;;;3.80;1.40;;;24.00;70.90;;;;;;4976292;28;20427;-64
2022/05/29 09:14:02;;;;;;;3.80;1.73;;;22.90;73.30;;;;;;4975940;28;20427;-65
2022/05/29 09:16:40;;;;;;;1.27;1.20;;;22.20;74.00;;;;;;4923885;28;20412;-64
2022/05/29 09:19:13;;;;;;;2.63;1.50;;;21.10;75.30;;;;;;4981428;28;20453;-65
2022/05/29 09:21:54;;;;;;;1.90;1.63;;;20.40;77.80;;;;;;4995268;28;20422;-66
2022/05/29 09:24:53;;;;;;;1.73;1.30;;;20.50;80.50;;;;;;4991744;28;20434;-63
2022/05/29 09:27:19;;;;;;;1.10;1.00;;;20.30;81.20;;;;;;4975519;28;20844;-65
2022/05/29 09:29:45;;;;;;;5.33;1.50;;;20.10;81.50;;;;;;4975941;28;20828;-64
2022/05/29 09:32:17;;;;;;;1.33;1.03;;;19.60;81.50;;;;;;4975511;28;20407;-65
2022/05/29 09:34:51;;;;;;;1.37;1.27;;;19.40;84.20;;;;;;4975349;28;20191;-65
2022/05/29 09:37:31;;;;;;;2.07;1.33;;;19.80;85.40;;;;;;4975364;28;20398;-64
2022/05/29 09:39:59;;;;;;;1.40;1.30;;;20.40;87.00;;;;;;4985308;28;20398;-64
2022/05/29 09:42:31;;;;;;;1.60;1.27;;;20.30;87.10;;;;;;4994983;28;20414;-65
2022/05/29 09:45:28;;;;;;;2.97;1.20;;;19.70;88.70;;;;;;4995249;28;20402;-64
2022/05/29 09:50:54;;;;;;;1.73;1.10;;;18.20;90.70;;;;;;4995331;28;20453;-65
2022/05/29 09:53:28;;;;;;;1.40;1.30;;;17.60;89.30;;;;;;4993403;28;21001;-65
2022/05/29 09:55:59;;;;;;;1.40;1.30;;;17.00;90.60;;;;;;4975857;28;20522;-64
2022/05/29 09:58:46;;;;;;;2.03;1.60;;;16.70;91.00;;;;;;4975371;28;20515;-64
2022/05/29 10:01:34;;;;;;;1.70;1.37;;;16.40;91.70;;;;;;4975574;28;20409;-65
2022/05/29 10:04:03;;;;;;;0.87;0.87;;;16.10;91.50;;;;;;4975173;28;20779;-64
2022/05/29 10:06:32;;;;;;;1.10;1.10;;;15.70;91.20;;;;;;4975010;28;20418;-66
2022/05/29 10:09:14;;;;;;;3.07;1.20;;;15.10;92.70;;;;;;4980430;28;20459;-66
2022/05/29 10:11:41;;;;;;;0.93;0.93;;;14.70;93.00;;;;;;4994581;28;20415;-66
2022/05/29 10:14:40;;;;;;;1.53;1.43;;;14.30;93.60;;;;;;4993966;28;20430;-63
2022/05/29 10:17:11;;;;;;;0.80;0.80;;;14.10;95.00;;;;;;4982558;28;20440;-64
2022/05/29 10:19:46;;;;;;;1.40;1.30;;;14.00;97.20;;;;;;4993812;28;20491;-63
2022/05/29 10:22:21;;;;;;;1.60;1.50;;;13.60;98.60;;;;;;4993777;28;20415;-64
2022/05/29 10:24:47;;;;;;;1.40;1.40;;;13.30;99.40;;;;;;4994401;28;20507;-63
2022/05/29 10:27:28;;;;;;;1.87;1.50;;;12.90;99.90;;;;;;4985388;28;20423;-63
2022/05/29 10:29:58;;;;;;;3.45;2.17;;;12.40;99.90;;;;;;4974826;28;20773;-62
2022/05/29 10:32:30;;;;;;;3.35;2.03;;;12.00;99.90;;;;;;4974588;28;20229;-63
2022/05/29 10:35:37;;;;;;;1.17;1.17;;;11.60;99.90;;;;;;4974804;28;20258;-63
2022/05/29 10:38:18;;;;;;;3.63;1.95;;;11.40;99.90;;;;;;4961806;28;20191;-62
2022/05/29 10:40:48;;;;;;;3.13;1.95;;;11.10;99.90;;;;;;4974745;28;20203;-61
2022/05/29 10:43:39;;;;;;;1.35;1.20;;;11.00;99.90;;;;;;4992518;28;20555;-62
2022/05/29 10:46:20;;;;;;;1.88;1.77;;;10.90;99.90;;;;;;4993941;28;20214;-63
2022/05/29 10:48:57;;;;;;;1.52;1.45;;;10.90;99.90;;;;;;4993727;28;20218;-63
2022/05/29 10:51:33;;;;;;;1.33;1.23;;;11.00;99.90;;;;;;4993775;28;20176;-65
2022/05/29 10:54:23;;;;;;;1.50;1.40;;;10.90;99.90;;;;;;4993128;28;20191;-64
2022/05/29 10:56:51;;;;;;;1.30;1.30;;;11.00;99.90;;;;;;4984331;28;20506;-64
2022/05/29 10:59:51;;;;;;;1.05;1.05;;;11.10;99.90;;;;;;4973886;28;20182;-65
2022/05/29 11:05:54;;;;;;;2.40;1.52;;;11.00;99.90;;;;;;4986713;28;20223;-64
2022/05/29 11:08:33;;;;;;;1.10;1.10;;;10.90;99.90;;;;;;4993566;28;20248;-66
2022/05/29 11:11:14;;;;;;;7.68;1.75;;;10.80;99.90;;;;;;4993865;28;20266;-65
2022/05/29 11:14:04;;;;;;;1.60;1.50;;;10.80;99.90;;;;;;4992804;28;20282;-65
2022/05/29 11:17:04;;;;;;;1.63;1.52;;;10.80;99.90;;;;;;4993339;28;20567;-66
2022/05/29 11:19:35;;;;;;;2.95;1.52;;;10.80;99.90;;;;;;4985543;28;20206;-64
2022/05/29 11:22:16;;;;;;;1.83;1.73;;;10.80;99.90;;;;;;4974058;28;20187;-64
2022/05/29 11:24:51;;;;;;;2.33;1.80;;;10.90;99.90;;;;;;4993000;28;20250;-65
2022/05/29 11:27:40;;;;;;;2.53;2.15;;;10.80;99.90;;;;;;4985801;28;20173;-63
2022/05/29 11:30:18;;;;;;;2.38;1.65;;;10.80;99.90;;;;;;4991266;28;20167;-63
2022/05/29 11:33:08;;;;;;;1.77;1.42;;;10.70;99.90;;;;;;4997170;28;20716;-62
2022/05/29 11:36:08;;;;;;;2.10;1.98;;;10.60;99.90;;;;;;4978381;28;20239;-65
2022/05/29 11:39:18;;;;;;;2.00;1.90;;;10.50;99.90;;;;;;4977927;28;20181;-70
2022/05/29 11:41:56;;;;;;;1.33;1.33;;;10.40;99.90;;;;;;4962454;28;20199;-68
2022/05/29 11:44:51;;;;;;;1.70;1.55;;;10.20;99.90;;;;;;4984636;28;20230;-69
2022/05/29 11:53:22;;;;;;;1.60;1.50;;;10.00;99.90;;;;;;4977081;28;20198;-70
2022/05/29 11:55:56;;;;;;;1.90;1.80;;;10.00;99.90;;;;;;4977107;28;20222;-63
2022/05/29 11:58:31;;;;;;;1.65;1.55;;;10.00;99.90;;;;;;4980040;28;20171;-70
2022/05/29 12:01:02;;;;;;;1.40;1.40;;;10.10;99.90;;;;;;4994779;28;20198;-69
2022/05/29 12:03:31;;;;;;;2.50;1.98;;;10.20;99.90;;;;;;4994493;28;20191;-69
2022/05/29 12:06:19;;;;;;;1.83;1.73;;;10.40;99.90;;;;;;4982835;28;20660;-64
2022/05/29 12:09:00;;;;;;;2.42;2.20;;;10.60;99.90;;;;;;4975318;28;20291;-71
2022/05/29 12:11:49;;;;;;;2.35;1.70;;;10.90;99.90;;;;;;4975055;28;20238;-72
2022/05/29 12:14:37;;;;;;;2.42;1.88;;;11.30;99.90;;;;;;4975168;28;20613;-70
2022/05/29 12:17:13;;;;;;;2.87;1.70;;;11.80;99.90;;;;;;4976925;28;20179;-72
2022/05/29 12:19:44;;;;;;;1.40;1.40;;;12.10;99.90;;;;;;4979442;28;20441;-68
2022/05/29 12:22:13;;;;;;;2.77;1.50;;;12.30;99.90;;;;;;4975397;28;20440;-69
2022/05/29 12:24:43;;;;;;;1.63;1.27;;;12.40;99.90;;;;;;4976934;28;20463;-69
2022/05/29 12:27:11;;;;;;;1.53;1.43;;;12.30;99.90;;;;;;4975777;28;20521;-70
2022/05/29 12:29:54;;;;;;;4.13;1.53;;;12.30;99.90;;;;;;4976656;28;20461;-72
2022/05/29 12:32:30;;;;;;;2.03;1.20;;;12.40;99.90;;;;;;4976446;28;20469;-74
2022/05/29 12:35:05;;;;;;;2.43;1.63;;;12.50;99.90;;;;;;4983755;28;20961;-72
2022/05/29 12:37:49;;;;;;;3.73;1.40;;;12.70;99.90;;;;;;4995226;28;20448;-73
2022/05/29 12:40:55;;;;;;;2.40;1.53;;;12.90;99.90;;;;;;4995938;28;20397;-72
2022/05/29 12:43:41;;;;;;;1.13;1.13;;;13.00;99.90;;;;;;4995757;28;20524;-71
2022/05/29 12:46:26;;;;;;;0.80;0.80;;;13.00;99.90;;;;;;4988532;28;20470;-73
2022/05/29 12:49:22;;;;;;;2.90;1.00;;;13.10;99.90;;;;;;4976351;28;20449;-70
2022/05/29 12:52:06;;;;;;;1.43;1.33;;;12.90;99.90;;;;;;4995108;28;20428;-70
2022/05/29 12:54:45;;;;;;;1.57;0.73;;;12.90;99.90;;;;;;4976442;28;20794;-74
2022/05/29 12:57:10;;;;;;;0.80;0.80;;;12.90;99.90;;;;;;4975010;28;20453;-71
2022/05/29 12:59:51;;;;;;;2.00;1.50;;;12.90;99.90;;;;;;4974845;28;20461;-72
2022/05/29 13:02:32;;;;;;;1.60;1.50;;;12.90;99.90;;;;;;4979244;28;20584;-70
2022/05/29 13:05:23;;;;;;;4.23;1.50;;;12.80;99.90;;;;;;4983459;28;20461;-69
2022/05/29 13:08:22;;;;;;;1.50;1.40;;;12.90;99.90;;;;;;4976025;28;20494;-67
2022/05/29 13:10:52;;;;;;;1.53;1.50;;;13.00;99.90;;;;;;4975091;28;20410;-66
2022/05/29 13:13:21;;;;;;;1.40;1.30;;;13.00;99.90;;;;;;4985687;28;20888;-67
2022/05/29 13:15:48;;;;;;;1.10;1.10;;;13.10;99.90;;;;;;4977067;28;20423;-70
2022/05/29 13:21:12;;;;;;;1.13;1.13;;;13.30;99.90;;;;;;4975916;28;20420;-68
2022/05/29 13:23:51;;;;;;;1.70;1.60;;;13.40;99.90;;;;;;4975930;28;20446;-69
2022/05/29 13:26:27;;;;;;;2.60;2.40;;;13.50;99.90;;;;;;4976302;28;20949;-63
2022/05/29 13:29:12;;;;;;;1.13;1.13;;;13.50;99.90;;;;;;4975953;28;20452;-64
2022/05/29 13:32:15;;;;;;;1.40;0.90;;;13.60;99.90;;;;;;4975475;28;20575;-64
2022/05/29 13:35:05;;;;;;;4.50;2.00;;;13.80;99.90;;;;;;4975678;28;20873;-64
2022/05/29 13:37:49;;;;;;;1.13;0.93;;;13.90;99.90;;;;;;4968463;28;20457;-68
2022/05/29 13:40:21;;;;;;;2.00;1.20;;;14.00;99.90;;;;;;4975286;28;20415;-67
2022/05/29 13:42:51;;;;;;;1.23;1.10;;;14.00;99.90;;;;;;4974785;28;20418;-69
2022/05/29 13:45:19;;;;;;;1.30;1.07;;;14.00;99.90;;;;;;4975252;28;20929;-68
2022/05/29 13:48:09;;;;;;;1.00;1.00;;;13.90;99.90;;;;;;4975098;28;20896;-69
2022/05/29 13:50:41;;;;;;;1.43;0.73;;;14.00;99.90;;;;;;4976334;28;20493;-68
2022/05/29 13:53:25;;;;;;;0.90;0.90;;;14.00;99.90;;;;;;4993616;28;20773;-68
2022/05/29 13:55:56;;;;;;;0.73;0.70;;;14.10;99.90;;;;;;4993483;28;20437;-67
2022/05/29 14:04:33;;;;;;;1.40;1.30;;;14.20;99.90;;;;;;4993407;28;20491;-66
2022/05/29 14:07:08;;;;;;;0.80;0.80;;;14.30;99.60;;;;;;4994665;28;20512;-66
2022/05/29 14:09:36;;;;;;;1.00;1.00;;;14.30;99.70;;;;;;4994479;28;20460;-66
2022/05/29 14:12:36;;;;;;;0.90;0.60;;;14.30;99.20;;;;;;4993643;28;20515;-67
2022/05/29 14:15:37;;;;;;;2.40;1.20;;;14.40;98.40;;;;;;4971484;28;20458;-67
2022/05/29 14:18:28;;;;;;;3.50;1.20;;;14.50;99.10;;;;;;4975786;28;20403;-66
2022/05/29 14:21:03;;;;;;;1.00;1.00;;;14.50;97.70;;;;;;4983602;28;20511;-66
2022/05/29 14:23:31;;;;;;;0.90;0.90;;;14.50;96.80;;;;;;4995443;28;20448;-65
2022/05/29 14:26:13;;;;;;;1.17;1.07;;;14.30;95.20;;;;;;4980355;28;20429;-65
2022/05/29 14:28:55;;;;;;;1.13;0.60;;;14.20;95.70;;;;;;4980471;28;20464;-64
2022/05/29 14:31:52;;;;;;;2.00;0.80;;;14.10;95.20;;;;;;4995000;28;20428;-63
2022/05/29 14:34:53;;;;;;;1.03;0.67;;;14.20;95.90;;;;;;4994792;28;20491;-65
2022/05/29 14:38:01;;;;;;;1.37;1.37;;;14.30;96.70;;;;;;4992016;28;20753;-64
2022/05/29 14:40:48;;;;;;;1.07;1.03;;;14.40;97.90;;;;;;4974396;28;20425;-65
2022/05/29 14:43:18;;;;;;;2.20;1.20;;;14.50;98.60;;;;;;4978653;28;20895;-65
2022/05/29 14:46:17;;;;;;;1.00;1.00;;;14.60;99.10;;;;;;4993418;28;20429;-65
2022/05/29 14:48:58;;;;;;;2.00;1.60;;;14.60;97.50;;;;;;4993457;28;20460;-66
2022/05/29 14:51:47;;;;;;;1.40;1.20;;;14.70;97.50;;;;;;4993820;28;20790;-63
2022/05/29 14:54:26;;;;;;;1.17;1.17;;;14.70;97.80;;;;;;4986560;28;20449;-65
2022/05/29 14:56:57;;;;;;;0.90;0.90;;;14.60;98.30;;;;;;4974352;28;20490;-65
2022/05/29 14:59:33;;;;;;;1.37;1.27;;;14.50;99.40;;;;;;4989844;28;20433;-64
2022/05/29 15:02:05;;;;;;;1.37;1.00;;;14.40;99.90;;;;;;4993344;28;20441;-66
2022/05/29 15:04:40;;;;;;;2.17;1.07;;;14.40;99.90;;;;;;4993119;28;20512;-65
2022/05/29 15:12:45;;;;;;;3.90;1.40;;;14.20;99.90;;;;;;4973929;28;20756;-65
2022/05/29 15:15:23;;;;;;;2.03;1.90;;;14.40;99.90;;;;;;4974657;28;20492;-65
2022/05/29 15:17:50;;;;;;;0.90;0.90;;;14.50;99.90;;;;;;4974244;28;20490;-65
2022/05/29 15:26:07;;;;;;;1.07;1.07;;;15.10;99.90;;;;;;4992390;28;20944;-65
2022/05/29 15:28:38;;;;;;;1.33;1.33;;;15.20;97.40;;;;;;4993597;28;20493;-65
2022/05/29 15:31:07;;;;;;;0.83;0.83;;;15.30;95.60;;;;;;4993851;28;20496;-65
2022/05/29 15:34:13;;;;;;;2.73;1.63;;;15.20;94.50;;;;;;4989702;28;20461;-65
2022/05/29 15:36:50;;;;;;;1.00;1.00;;;15.10;95.00;;;;;;4957287;28;20783;-66
2022/05/29 15:39:45;;;;;;;3.70;1.10;;;14.90;93.10;;;;;;4977678;28;20522;-67
2022/05/29 15:42:25;;;;;;;1.17;1.13;;;14.80;94.30;;;;;;4968729;28;20420;-66
2022/05/29 15:45:26;;;;;;;0.90;0.90;;;14.70;94.70;;;;;;4979372;28;20890;-71
2022/05/29 15:48:20;;;;;;;1.33;1.23;;;14.60;94.90;;;;;;4972284;28;20982;-66
2022/05/29 15:51:12;;;;;;;1.40;1.30;;;14.50;95.40;;;;;;4948357;28;20472;-68
2022/05/29 15:53:42;;;;;;;2.53;1.10;;;14.60;95.20;;;;;;4977406;28;20950;-66
2022/05/29 15:56:36;;;;;;;1.33;1.33;;;14.60;93.90;;;;;;4993260;28;20445;-68
2022/05/29 15:59:06;;;;;;;1.70;1.47;;;14.50;93.50;;;;;;4992944;28;20415;-67
2022/05/29 16:02:20;;;;;;;1.23;1.10;;;14.50;94.00;;;;;;4992893;28;20513;-66
2022/05/29 16:04:51;;;;;;;1.73;1.03;;;14.40;95.00;;;;;;4964315;28;20998;-67
2022/05/29 16:07:36;;;;;;;1.40;1.30;;;14.40;94.00;;;;;;4993007;28;20403;-65
2022/05/29 16:10:05;;;;;;;0.90;0.90;;;14.40;94.10;;;;;;4993286;28;20425;-69
2022/05/29 16:12:42;;;;;;;1.10;1.10;;;14.30;94.00;;;;;;4992455;28;20902;-67
2022/05/29 16:15:08;;;;;;;1.10;1.10;;;14.30;96.10;;;;;;4979665;28;20443;-66
2022/05/29 16:17:48;;;;;;;1.73;1.20;;;14.30;97.20;;;;;;4976715;28;20430;-66
2022/05/29 16:20:38;;;;;;;1.13;1.13;;;14.30;95.40;;;;;;4987164;28;20417;-65
2022/05/29 16:23:17;;;;;;;1.33;1.27;;;14.20;94.60;;;;;;4995051;28;20520;-67
2022/05/29 16:26:11;;;;;;;2.30;2.10;;;14.10;95.10;;;;;;4996568;28;20483;-67
2022/05/29 16:28:59;;;;;;;1.57;1.20;;;14.10;96.10;;;;;;4990258;28;20487;-65
2022/05/29 16:31:50;;;;;;;1.53;1.40;;;14.00;96.80;;;;;;4993857;28;20445;-66
2022/05/29 16:34:28;;;;;;;2.27;0.97;;;14.00;97.50;;;;;;4976173;28;20431;-67
2022/05/29 16:48:48;;;;;;;1.60;1.50;;;13.70;96.40;;;;;;4976885;28;20476;-67
2022/05/29 16:51:25;;;;;;;5.30;3.80;;;13.70;95.90;;;;;;4980979;28;20496;-67
2022/05/29 16:54:02;;;;;;;3.80;1.63;;;13.60;96.00;;;;;;4974920;28;20450;-64
2022/05/29 16:56:46;;;;;;;1.27;1.27;;;13.60;96.70;;;;;;4976596;28;20999;-64
2022/05/29 16:59:16;;;;;;;2.00;1.80;;;13.50;96.60;;;;;;4976593;28;20528;-70
2022/05/29 17:01:54;;;;;;;1.50;1.20;;;13.50;96.60;;;;;;4976571;28;20425;-67
2022/05/29 17:04:30;;;;;;;0.80;0.80;;;13.50;96.50;;;;;;4978531;28;20526;-64
2022/05/29 17:07:10;;;;;;;1.97;1.43;;;13.60;96.00;;;;;;4979247;28;20442;-66
2022/05/29 17:09:51;;;;;;;1.73;1.33;;;13.60;96.10;;;;;;4976172;28;20812;-67
2022/05/29 17:12:18;;;;;;;1.70;1.60;;;13.60;96.00;;;;;;4976046;28;20505;-67
2022/05/29 17:14:52;;;;;;;1.60;1.50;;;13.50;96.50;;;;;;4978469;28;20484;-66
2022/05/29 17:17:18;;;;;;;1.47;1.37;;;13.50;96.80;;;;;;4991015;28;20421;-67
2022/05/29 17:19:48;;;;;;;1.20;1.17;;;13.60;96.10;;;;;;4991190;28;20940;-67
2022/05/29 17:22:21;;;;;;;1.60;1.50;;;13.60;96.10;;;;;;4985546;28;20175;-67
2022/05/29 17:24:52;;;;;;;1.07;0.97;;;13.60;95.80;;;;;;4990828;28;20440;-68
2022/05/29 17:27:33;;;;;;;3.57;1.80;;;13.50;95.30;;;;;;4984782;28;20956;-67
2022/05/29 17:30:06;;;;;;;1.30;1.20;;;13.60;95.60;;;;;;4987922;28;20432;-66
2022/05/29 17:32:37;;;;;;;2.47;1.93;;;13.50;96.30;;;;;;4987943;28;20428;-68
2022/05/29 17:35:10;;;;;;;1.53;0.97;;;13.50;96.10;;;;;;4994483;28;20952;-65
2022/05/29 17:38:06;;;;;;;1.60;0.97;;;13.50;95.90;;;;;;4994851;28;20434;-67
2022/05/29 17:40:39;;;;;;;1.60;1.50;;;13.50;95.60;;;;;;4978452;28;20424;-69
2022/05/29 17:43:05;;;;;;;0.90;0.90;;;13.40;95.70;;;;;;4973886;28;20427;-68
2022/05/29 17:45:31;;;;;;;1.17;1.17;;;13.50;94.70;;;;;;4974545;28;20582;-65
2022/05/29 17:48:17;;;;;;;1.13;1.13;;;13.50;94.80;;;;;;4975432;28;20461;-65
2022/05/29 17:50:58;;;;;;;1.30;1.00;;;13.40;95.90;;;;;;4986220;28;20432;-68
2022/05/29 17:53:48;;;;;;;1.20;1.10;;;13.40;95.30;;;;;;4973759;28;20805;-68
2022/05/29 17:56:14;;;;;;;2.50;1.87;;;13.40;95.40;;;;;;4976270;28;20428;-68
2022/05/29 17:58:39;;;;;;;1.53;1.43;;;13.40;96.20;;;;;;4976218;28;20576;-68
2022/05/29 18:01:05;;;;;;;1.40;1.30;;;13.30;97.10;;;;;;4975693;28;20190;-66
2022/05/29 18:03:34;;;;;;;1.83;1.47;;;13.30;97.50;;;;;;4991274;28;20204;-66
2022/05/29 18:06:02;;;;;;;1.70;1.60;;;13.40;96.90;;;;;;4994867;28;20196;-68
2022/05/29 18:08:28;;;;;;;2.50;2.30;;;13.30;97.70;;;;;;4977355;28;20828;-64
2022/05/29 18:10:57;;;;;;;1.27;1.10;;;13.30;98.00;;;;;;4975418;28;20507;-69
2022/05/29 18:13:23;;;;;;;1.40;1.40;;;13.20;98.70;;;;;;4988498;28;20457;-70
2022/05/29 18:15:50;;;;;;;1.03;1.00;;;13.10;99.20;;;;;;4991277;28;20443;-67
2022/05/29 18:18:17;;;;;;;1.90;1.07;;;13.10;99.20;;;;;;4993167;28;20425;-67
2022/05/29 18:20:44;;;;;;;1.77;1.10;;;13.10;99.10;;;;;;4980226;28;20427;-68
2022/05/29 18:23:09;;;;;;;1.13;1.13;;;13.00;99.50;;;;;;4993029;28;20508;-67
2022/05/29 18:25:35;;;;;;;1.27;1.20;;;13.00;99.70;;;;;;4980192;28;20431;-65
2022/05/29 18:28:01;;;;;;;1.50;1.40;;;13.00;99.80;;;;;;4985334;28;20535;-64
2022/05/29 18:30:27;;;;;;;1.00;1.00;;;12.90;99.90;;;;;;4981570;28;20823;-64
2022/05/29 18:32:53;;;;;;;1.10;1.10;;;12.80;99.90;;;;;;4983368;28;20537;-64
2022/05/29 18:35:18;;;;;;;1.70;1.57;;;12.70;99.90;;;;;;4979365;28;20174;-64